Time;durP1;ratioP1;P1;durP2;ratioP2;P2;SDS_P1;SDS_P2;PMS_P1;PMS_P2;Temp;Humidity;BMP_temperature;BMP_pressure;BME280_temperature;BME280_humidity;BME280_pressure;Samples;Min_cycle;Max_cycle;Signal;HPM_P1;HPM_P2
2022/10/09 00:01:07;;;;;;;7.83;6.97;;;13.20;90.50;;;;;;5009727;28;20202;-89
2022/10/09 00:03:34;;;;;;;10.40;7.47;;;12.90;91.40;;;;;;5013762;28;20219;-89
2022/10/09 00:05:59;;;;;;;8.30;7.50;;;12.70;94.80;;;;;;5014983;28;20252;-88
2022/10/09 00:08:25;;;;;;;9.67;8.10;;;12.50;97.90;;;;;;5007040;28;20198;-89
2022/10/09 00:10:51;;;;;;;8.97;7.43;;;12.30;99.80;;;;;;5013085;28;20207;-89
2022/10/09 00:13:17;;;;;;;8.30;7.50;;;12.10;99.90;;;;;;5014916;28;20475;-89
2022/10/09 00:15:44;;;;;;;7.83;7.07;;;12.00;99.90;;;;;;5014528;28;20549;-89
2022/10/09 00:18:12;;;;;;;9.17;7.30;;;11.90;99.90;;;;;;5020080;28;20556;-88
2022/10/09 00:20:40;;;;;;;11.17;7.47;;;11.80;99.90;;;;;;5013757;28;20203;-88
2022/10/09 00:23:06;;;;;;;8.20;7.40;;;11.80;99.90;;;;;;5006214;28;20335;-88
2022/10/09 00:25:34;;;;;;;8.77;7.20;;;11.70;99.90;;;;;;5013694;28;20189;-89
2022/10/09 00:28:01;;;;;;;7.17;6.57;;;11.80;99.90;;;;;;5014257;28;20572;-88
2022/10/09 00:30:27;;;;;;;7.30;6.53;;;11.90;99.90;;;;;;5013952;28;20258;-89
2022/10/09 00:32:53;;;;;;;9.47;6.83;;;12.00;99.90;;;;;;5013634;28;20209;-87
2022/10/09 00:35:19;;;;;;;7.50;6.80;;;12.10;99.90;;;;;;5014270;28;20463;-88
2022/10/09 00:37:45;;;;;;;7.80;7.00;;;12.20;99.90;;;;;;5013965;28;20655;-88
2022/10/09 00:40:11;;;;;;;8.83;7.00;;;12.30;99.90;;;;;;5013994;28;20265;-89
2022/10/09 00:42:37;;;;;;;9.60;7.10;;;12.40;99.90;;;;;;5014833;28;20299;-89
2022/10/09 00:45:03;;;;;;;7.40;6.70;;;12.50;99.90;;;;;;5013477;28;20288;-89
2022/10/09 00:47:40;;;;;;;8.27;6.93;;;12.50;99.00;;;;;;5014406;28;20285;-89
2022/10/09 00:50:15;;;;;;;8.30;7.50;;;12.50;98.60;;;;;;5014119;28;20210;-88
2022/10/09 00:52:40;;;;;;;7.27;6.43;;;12.40;98.20;;;;;;5010774;28;20200;-88
2022/10/09 00:55:08;;;;;;;6.93;6.33;;;12.40;98.30;;;;;;5013436;28;20277;-88
2022/10/09 00:57:34;;;;;;;8.17;7.37;;;12.20;99.20;;;;;;5012339;28;20240;-87
2022/10/09 01:00:03;;;;;;;7.43;6.60;;;12.00;99.80;;;;;;5014079;28;20271;-88
2022/10/09 01:02:29;;;;;;;7.60;6.97;;;11.60;99.90;;;;;;5014017;28;20225;-88
2022/10/09 01:04:55;;;;;;;9.73;7.00;;;11.50;99.90;;;;;;5013214;28;20235;-88
2022/10/09 01:07:48;;;;;;;7.53;6.60;;;11.40;99.90;;;;;;5007360;28;20197;-88
2022/10/09 01:10:22;;;;;;;9.73;7.20;;;11.40;99.90;;;;;;5008946;28;20205;-88
2022/10/09 01:12:58;;;;;;;11.07;7.03;;;11.40;99.90;;;;;;5024824;28;20314;-86
2022/10/09 01:15:34;;;;;;;6.60;6.00;;;11.40;99.90;;;;;;5014229;28;20184;-88
2022/10/09 01:18:24;;;;;;;8.53;6.93;;;11.50;99.90;;;;;;5016810;28;20201;-88
2022/10/09 01:21:18;;;;;;;7.73;6.50;;;11.60;99.90;;;;;;5035656;28;20191;-86
2022/10/09 01:23:48;;;;;;;6.67;6.00;;;11.50;99.90;;;;;;5035555;28;20243;-86
2022/10/09 01:26:31;;;;;;;7.83;6.67;;;11.50;99.90;;;;;;5033470;28;20196;-89
2022/10/09 01:29:03;;;;;;;8.00;7.17;;;11.40;99.90;;;;;;5011703;28;20272;-89
2022/10/09 01:31:33;;;;;;;7.33;6.60;;;11.30;99.90;;;;;;5012944;28;20248;-88
2022/10/09 01:34:00;;;;;;;8.03;6.80;;;11.10;99.90;;;;;;5012948;28;20295;-89
2022/10/09 01:36:29;;;;;;;7.37;6.63;;;11.10;99.90;;;;;;5012382;28;20196;-88
2022/10/09 01:38:58;;;;;;;8.43;6.50;;;11.10;99.90;;;;;;5012762;28;20220;-89
2022/10/09 01:41:25;;;;;;;7.37;6.30;;;11.10;99.90;;;;;;5010756;28;20217;-89
2022/10/09 01:43:50;;;;;;;9.03;6.90;;;11.00;99.90;;;;;;5002045;28;20292;-89
2022/10/09 01:46:20;;;;;;;7.77;7.00;;;10.90;99.90;;;;;;5007866;28;20642;-89
2022/10/09 01:49:07;;;;;;;8.63;7.70;;;10.80;99.90;;;;;;5012389;28;20187;-89
2022/10/09 01:51:52;;;;;;;8.47;6.50;;;10.80;99.90;;;;;;5009059;28;20658;-89
2022/10/09 01:54:29;;;;;;;8.37;7.50;;;10.80;99.90;;;;;;5012640;28;20202;-88
2022/10/09 01:56:58;;;;;;;7.67;6.97;;;10.70;99.90;;;;;;5011585;28;20274;-87
2022/10/09 01:59:26;;;;;;;7.37;6.47;;;10.60;99.90;;;;;;5013647;28;20284;-89
2022/10/09 02:01:52;;;;;;;9.30;7.30;;;10.60;99.90;;;;;;5013664;28;20213;-88
2022/10/09 02:04:18;;;;;;;8.37;7.57;;;10.60;99.90;;;;;;5012622;28;20256;-89
2022/10/09 02:06:46;;;;;;;8.73;7.23;;;10.70;99.90;;;;;;5010119;28;20578;-88
2022/10/09 02:09:14;;;;;;;7.77;7.03;;;10.80;99.90;;;;;;5017454;28;20588;-87
2022/10/09 02:11:42;;;;;;;7.43;6.60;;;10.90;99.90;;;;;;5012884;28;20198;-87
2022/10/09 02:14:08;;;;;;;7.60;6.80;;;11.00;99.90;;;;;;4993912;28;20217;-88
2022/10/09 02:16:34;;;;;;;7.27;6.67;;;10.90;99.90;;;;;;5012184;28;20223;-88
2022/10/09 02:19:31;;;;;;;8.53;7.00;;;10.80;99.90;;;;;;5011472;28;20186;-88
2022/10/09 02:22:05;;;;;;;7.80;6.97;;;10.80;99.90;;;;;;5009716;28;20194;-89
2022/10/09 02:24:32;;;;;;;10.40;6.87;;;10.60;99.90;;;;;;5011837;28;20208;-89
2022/10/09 02:26:58;;;;;;;8.27;7.37;;;10.60;99.90;;;;;;5011899;28;20189;-88
2022/10/09 02:29:24;;;;;;;10.13;7.13;;;10.80;99.90;;;;;;4993992;28;20187;-88
2022/10/09 02:31:50;;;;;;;9.30;7.33;;;10.80;99.90;;;;;;5011644;28;20234;-89
2022/10/09 02:34:18;;;;;;;8.90;6.40;;;10.90;99.90;;;;;;5011344;28;20574;-89
2022/10/09 02:36:44;;;;;;;6.77;6.07;;;11.00;99.90;;;;;;5009604;28;20199;-89
2022/10/09 02:39:10;;;;;;;9.57;7.00;;;11.20;99.90;;;;;;5011829;28;20658;-88
2022/10/09 02:41:36;;;;;;;8.80;6.70;;;11.30;99.90;;;;;;5011601;28;20199;-89
2022/10/09 02:44:03;;;;;;;7.50;6.80;;;11.30;99.90;;;;;;5011745;28;20218;-89
2022/10/09 02:46:29;;;;;;;7.90;7.20;;;11.10;99.90;;;;;;5012145;28;20313;-88
2022/10/09 02:48:55;;;;;;;7.60;6.90;;;11.10;99.90;;;;;;5011889;28;20220;-88
2022/10/09 02:51:21;;;;;;;9.23;6.83;;;11.00;99.90;;;;;;5010734;28;20186;-88
2022/10/09 02:53:46;;;;;;;8.33;7.40;;;10.70;99.90;;;;;;5011471;28;20214;-89
2022/10/09 02:56:12;;;;;;;8.57;7.33;;;10.60;99.90;;;;;;5009721;28;20194;-86
2022/10/09 02:58:39;;;;;;;7.90;7.20;;;10.50;99.90;;;;;;5013174;28;20182;-88
2022/10/09 03:01:05;;;;;;;11.30;8.00;;;10.40;99.90;;;;;;5017897;28;20667;-89
2022/10/09 03:03:31;;;;;;;10.87;7.27;;;10.50;99.90;;;;;;5016148;28;20210;-88
2022/10/09 03:06:02;;;;;;;12.00;6.73;;;10.40;99.90;;;;;;5016307;28;20211;-88
2022/10/09 03:08:27;;;;;;;8.40;7.53;;;10.40;99.90;;;;;;5018418;28;20182;-89
2022/10/09 03:10:53;;;;;;;10.47;7.33;;;10.40;99.90;;;;;;5016025;28;20664;-88
2022/10/09 03:13:19;;;;;;;10.80;7.40;;;10.40;99.90;;;;;;5023977;28;20223;-88
2022/10/09 03:15:44;;;;;;;8.87;7.30;;;10.40;99.90;;;;;;5023704;28;20188;-89
2022/10/09 03:18:10;;;;;;;7.60;6.80;;;10.40;99.90;;;;;;5023965;28;20209;-88
2022/10/09 03:20:37;;;;;;;8.00;7.30;;;10.40;99.90;;;;;;5013929;28;20254;-89
2022/10/09 03:23:02;;;;;;;7.53;6.83;;;10.40;99.90;;;;;;5012874;28;20210;-88
2022/10/09 03:25:28;;;;;;;7.60;6.87;;;10.30;99.90;;;;;;5024323;28;20189;-88
2022/10/09 03:27:54;;;;;;;9.13;7.30;;;10.10;99.90;;;;;;5024356;28;20578;-88
2022/10/09 03:30:19;;;;;;;11.03;7.33;;;10.20;99.90;;;;;;5034536;28;20209;-87
2022/10/09 03:32:45;;;;;;;8.83;7.27;;;10.20;99.90;;;;;;5042037;28;20516;-86
2022/10/09 03:35:11;;;;;;;8.90;6.87;;;10.10;99.90;;;;;;5033972;28;20178;-88
2022/10/09 03:37:36;;;;;;;8.73;7.00;;;10.10;99.90;;;;;;5038520;28;20267;-90
2022/10/09 03:40:03;;;;;;;7.83;6.83;;;10.00;99.90;;;;;;5023751;28;20288;-89
2022/10/09 03:42:28;;;;;;;8.10;7.30;;;10.10;99.90;;;;;;5022481;28;20231;-90
2022/10/09 03:44:54;;;;;;;8.00;7.23;;;10.10;99.90;;;;;;5006645;28;20304;-90
2022/10/09 03:47:20;;;;;;;8.97;7.77;;;10.10;99.90;;;;;;5024352;28;20202;-90
2022/10/09 03:49:45;;;;;;;7.93;7.13;;;10.00;99.90;;;;;;5022708;28;20281;-89
2022/10/09 03:52:11;;;;;;;8.13;7.43;;;10.00;99.90;;;;;;5022407;28;20212;-89
2022/10/09 03:54:36;;;;;;;9.10;7.00;;;9.90;99.90;;;;;;5023339;28;20236;-88
2022/10/09 03:57:02;;;;;;;8.13;7.20;;;10.00;99.90;;;;;;5023495;28;20202;-89
2022/10/09 03:59:27;;;;;;;8.07;5.90;;;10.20;99.90;;;;;;5023548;28;20190;-89
2022/10/09 04:01:53;;;;;;;7.53;6.77;;;10.20;99.90;;;;;;5025313;28;20221;-89
2022/10/09 04:04:19;;;;;;;7.33;6.63;;;10.30;99.90;;;;;;5029128;28;20222;-88
2022/10/09 04:06:44;;;;;;;8.60;6.83;;;10.30;99.90;;;;;;5018120;28;20210;-88
2022/10/09 04:09:10;;;;;;;10.40;7.10;;;10.30;99.90;;;;;;5031644;28;20209;-88
2022/10/09 04:11:35;;;;;;;8.43;7.10;;;10.30;99.90;;;;;;5041876;28;20179;-88
2022/10/09 04:14:02;;;;;;;8.33;7.20;;;10.20;99.90;;;;;;5031785;28;20220;-88
2022/10/09 04:16:28;;;;;;;7.83;7.03;;;10.20;99.90;;;;;;5022791;28;20189;-89
2022/10/09 04:18:53;;;;;;;8.03;7.10;;;10.10;99.90;;;;;;5023172;28;20192;-90
2022/10/09 04:21:19;;;;;;;12.03;7.43;;;10.00;99.90;;;;;;5019407;28;20225;-88
2022/10/09 04:23:45;;;;;;;8.93;6.50;;;10.00;99.90;;;;;;5020062;28;20217;-89
2022/10/09 04:26:12;;;;;;;7.33;6.63;;;10.00;99.90;;;;;;5011858;28;20598;-89
2022/10/09 04:28:37;;;;;;;9.10;7.27;;;10.00;99.90;;;;;;5018641;28;20193;-88
2022/10/09 04:31:03;;;;;;;7.80;7.10;;;9.90;99.90;;;;;;5010968;28;20205;-89
2022/10/09 04:33:29;;;;;;;7.87;7.07;;;9.80;99.90;;;;;;5019774;28;20636;-89
2022/10/09 04:35:55;;;;;;;8.87;7.40;;;9.80;99.90;;;;;;5011097;28;20201;-90
2022/10/09 04:38:22;;;;;;;9.67;7.10;;;9.80;99.90;;;;;;5020247;28;20490;-89
2022/10/09 04:41:02;;;;;;;9.30;7.13;;;9.70;99.90;;;;;;5020403;28;20200;-89
2022/10/09 04:43:28;;;;;;;9.53;6.53;;;9.70;99.90;;;;;;5016512;28;20288;-89
2022/10/09 04:45:55;;;;;;;7.73;6.93;;;9.70;99.90;;;;;;5020205;28;20186;-89
2022/10/09 04:48:21;;;;;;;7.60;6.90;;;9.70;99.90;;;;;;5018700;28;20194;-89
2022/10/09 04:50:46;;;;;;;9.67;7.10;;;9.50;99.90;;;;;;5008831;28;20254;-88
2022/10/09 04:53:13;;;;;;;9.07;6.77;;;9.60;99.90;;;;;;5034532;28;20280;-89
2022/10/09 04:55:43;;;;;;;7.93;7.10;;;9.50;99.90;;;;;;5019362;28;20604;-89
2022/10/09 04:58:10;;;;;;;10.57;7.00;;;9.60;99.90;;;;;;5022299;28;20193;-89
2022/10/09 05:00:44;;;;;;;7.97;6.60;;;9.50;99.90;;;;;;5023785;28;20309;-89
2022/10/09 05:03:10;;;;;;;7.47;6.73;;;9.60;99.90;;;;;;5003546;28;20226;-88
2022/10/09 05:05:36;;;;;;;9.43;6.67;;;9.60;99.90;;;;;;5032906;28;20365;-87
2022/10/09 05:08:02;;;;;;;7.87;7.17;;;9.60;99.90;;;;;;5036190;28;20209;-87
2022/10/09 05:10:27;;;;;;;7.90;6.87;;;9.60;99.90;;;;;;5036286;28;20170;-87
2022/10/09 05:12:53;;;;;;;7.90;7.10;;;9.60;99.90;;;;;;5021650;28;20210;-89
2022/10/09 05:15:19;;;;;;;7.27;6.57;;;9.50;99.90;;;;;;5019216;28;20631;-89
2022/10/09 05:17:44;;;;;;;8.20;7.20;;;9.60;99.90;;;;;;5019434;28;20580;-89
2022/10/09 05:20:10;;;;;;;7.20;6.50;;;9.50;99.90;;;;;;5015216;28;20177;-90
2022/10/09 05:22:36;;;;;;;7.90;6.10;;;9.40;99.90;;;;;;5017525;28;20222;-89
2022/10/09 05:25:02;;;;;;;10.83;7.07;;;9.50;99.90;;;;;;5019477;28;20280;-89
2022/10/09 05:27:27;;;;;;;7.10;6.47;;;9.40;99.90;;;;;;5018899;28;20196;-89
2022/10/09 05:29:53;;;;;;;8.67;6.53;;;9.30;99.90;;;;;;5019364;28;20280;-88
2022/10/09 05:32:19;;;;;;;7.27;6.47;;;9.30;99.90;;;;;;5020334;28;20280;-88
2022/10/09 05:34:44;;;;;;;6.93;5.97;;;9.40;99.90;;;;;;5011409;28;20181;-88
2022/10/09 05:37:10;;;;;;;7.90;6.70;;;9.30;99.90;;;;;;5019739;28;20185;-88
2022/10/09 05:39:37;;;;;;;7.00;6.40;;;9.30;99.90;;;;;;5018856;28;20666;-88
2022/10/09 05:42:03;;;;;;;7.00;6.30;;;9.20;99.90;;;;;;5019129;28;20189;-88
2022/10/09 05:44:28;;;;;;;8.67;6.50;;;9.30;99.90;;;;;;5018668;28;20215;-88
2022/10/09 05:46:54;;;;;;;6.73;5.97;;;9.40;99.90;;;;;;5013501;28;20190;-88
2022/10/09 05:49:19;;;;;;;9.43;6.57;;;9.30;99.90;;;;;;5015106;28;20182;-89
2022/10/09 05:51:45;;;;;;;10.73;6.80;;;9.20;99.90;;;;;;5019193;28;20189;-88
2022/10/09 05:54:16;;;;;;;9.83;6.97;;;9.10;99.90;;;;;;5017459;28;20305;-88
2022/10/09 05:56:43;;;;;;;8.63;6.57;;;9.00;99.90;;;;;;5013200;28;20186;-88
2022/10/09 05:59:18;;;;;;;7.57;6.00;;;8.90;99.90;;;;;;5017237;28;20194;-88
2022/10/09 06:01:48;;;;;;;8.77;6.30;;;9.10;99.90;;;;;;5017825;28;20652;-88
2022/10/09 06:04:22;;;;;;;7.43;6.50;;;9.10;99.90;;;;;;5014478;28;20220;-88
2022/10/09 06:06:48;;;;;;;7.13;6.43;;;9.20;99.90;;;;;;5015420;28;20177;-88
2022/10/09 06:09:24;;;;;;;8.80;5.93;;;9.30;99.90;;;;;;5017127;28;20184;-88
2022/10/09 06:11:50;;;;;;;7.43;6.73;;;9.40;99.90;;;;;;5017588;28;20264;-88
2022/10/09 06:14:16;;;;;;;7.53;6.47;;;9.30;99.90;;;;;;5018070;28;20209;-88
2022/10/09 06:16:44;;;;;;;8.33;6.87;;;9.30;99.90;;;;;;5017709;28;20722;-88
2022/10/09 06:19:14;;;;;;;12.00;6.77;;;9.20;99.90;;;;;;5018327;28;20664;-88
2022/10/09 06:21:41;;;;;;;7.40;6.13;;;9.30;99.90;;;;;;5012306;28;20251;-88
2022/10/09 06:24:07;;;;;;;7.07;6.33;;;9.30;99.90;;;;;;5012070;28;20679;-88
2022/10/09 06:26:33;;;;;;;8.90;6.70;;;9.40;99.90;;;;;;5018664;28;20194;-88
2022/10/09 06:29:00;;;;;;;8.90;6.17;;;9.40;99.90;;;;;;5013673;28;20553;-88
2022/10/09 06:31:29;;;;;;;14.57;13.17;;;9.40;99.90;;;;;;5026899;28;20201;-88
2022/10/09 06:33:56;;;;;;;11.07;7.60;;;9.40;99.90;;;;;;5015450;28;20216;-88
2022/10/09 06:36:28;;;;;;;15.17;7.23;;;9.30;99.90;;;;;;5020164;28;20220;-88
2022/10/09 06:38:54;;;;;;;7.73;6.93;;;9.30;99.90;;;;;;5017174;28;20229;-88
2022/10/09 06:41:22;;;;;;;7.53;6.73;;;9.20;99.90;;;;;;5018772;28;20185;-88
2022/10/09 06:43:50;;;;;;;10.83;7.13;;;9.20;99.90;;;;;;5017468;28;20621;-88
2022/10/09 06:46:17;;;;;;;9.70;6.80;;;9.30;99.90;;;;;;5017567;28;20178;-88
2022/10/09 06:48:42;;;;;;;7.67;6.53;;;9.20;99.90;;;;;;5017708;28;20193;-89
2022/10/09 06:51:13;;;;;;;8.90;7.00;;;9.20;99.90;;;;;;5018342;28;20198;-88
2022/10/09 06:53:42;;;;;;;7.80;6.80;;;9.30;99.90;;;;;;5017626;28;20220;-89
2022/10/09 06:56:09;;;;;;;10.13;6.40;;;9.20;99.90;;;;;;5017658;28;20209;-89
2022/10/09 06:58:35;;;;;;;7.43;6.73;;;9.20;99.90;;;;;;5031273;28;20189;-89
2022/10/09 07:01:05;;;;;;;9.00;8.10;;;9.30;99.90;;;;;;5036344;28;20223;-89
2022/10/09 07:03:31;;;;;;;7.60;6.60;;;9.30;99.90;;;;;;5025545;28;20217;-88
2022/10/09 07:06:11;;;;;;;7.47;6.77;;;9.40;99.90;;;;;;4999655;28;20220;-89
2022/10/09 07:08:39;;;;;;;7.97;6.60;;;9.40;99.90;;;;;;5012736;28;20328;-88
2022/10/09 07:11:22;;;;;;;9.23;6.50;;;9.50;99.90;;;;;;5017909;28;20185;-89
2022/10/09 07:13:50;;;;;;;6.80;6.10;;;9.60;99.90;;;;;;5015281;28;20213;-89
2022/10/09 07:16:27;;;;;;;10.00;7.00;;;9.60;99.90;;;;;;5003288;28;20201;-89
2022/10/09 07:18:54;;;;;;;8.57;6.80;;;9.70;99.90;;;;;;5015011;28;20552;-89
2022/10/09 07:21:20;;;;;;;9.80;6.63;;;9.80;99.90;;;;;;5015952;28;20596;-89
2022/10/09 07:23:46;;;;;;;9.97;6.43;;;9.90;99.90;;;;;;5014672;28;20212;-89
2022/10/09 07:26:21;;;;;;;7.50;6.60;;;9.90;99.90;;;;;;5009161;28;20361;-89
2022/10/09 07:28:48;;;;;;;8.90;6.43;;;10.00;99.90;;;;;;5013965;28;20267;-89
2022/10/09 07:31:14;;;;;;;7.00;6.30;;;10.00;99.90;;;;;;5013339;28;20201;-88
2022/10/09 07:33:40;;;;;;;10.13;6.50;;;10.00;99.90;;;;;;5015650;28;20220;-88
2022/10/09 07:36:06;;;;;;;7.87;6.20;;;10.10;99.90;;;;;;5008791;28;20277;-89
2022/10/09 07:38:32;;;;;;;8.90;7.37;;;10.00;99.90;;;;;;5015347;28;20661;-88
2022/10/09 07:41:04;;;;;;;7.13;6.43;;;10.00;99.90;;;;;;5011925;28;20288;-88
2022/10/09 07:43:30;;;;;;;7.03;6.33;;;10.00;99.90;;;;;;5014121;28;20260;-88
2022/10/09 07:46:00;;;;;;;9.17;6.80;;;10.10;99.90;;;;;;5013030;28;20318;-88
2022/10/09 07:48:26;;;;;;;8.83;5.90;;;10.20;99.90;;;;;;5015199;28;20212;-89
2022/10/09 07:50:52;;;;;;;7.40;6.70;;;10.30;99.90;;;;;;5015800;28;20187;-89
2022/10/09 07:53:18;;;;;;;7.57;6.67;;;10.50;99.90;;;;;;5015053;28;20221;-89
2022/10/09 07:55:47;;;;;;;10.57;6.70;;;10.50;99.90;;;;;;5016232;28;20190;-88
2022/10/09 07:58:15;;;;;;;9.50;6.57;;;10.60;99.90;;;;;;5019922;28;20194;-89
2022/10/09 08:00:41;;;;;;;8.13;6.97;;;10.60;99.90;;;;;;5019839;28;20190;-89
2022/10/09 08:03:07;;;;;;;7.03;6.03;;;10.50;99.90;;;;;;5024081;28;20213;-89
2022/10/09 08:05:32;;;;;;;7.57;6.73;;;10.60;99.90;;;;;;5038291;28;20186;-89
2022/10/09 08:07:58;;;;;;;6.57;5.97;;;10.60;99.90;;;;;;5020131;28;20198;-89
2022/10/09 08:10:24;;;;;;;8.07;6.70;;;10.70;99.90;;;;;;5029818;28;20760;-89
2022/10/09 08:12:49;;;;;;;6.73;6.03;;;10.70;99.90;;;;;;5021581;28;20663;-88
2022/10/09 08:15:15;;;;;;;10.27;7.10;;;10.90;99.90;;;;;;5020718;28;20701;-88
2022/10/09 08:17:41;;;;;;;7.23;6.17;;;11.00;99.90;;;;;;5019610;28;20194;-88
2022/10/09 08:20:07;;;;;;;7.40;6.33;;;11.00;99.90;;;;;;5019495;28;20205;-88
2022/10/09 08:22:33;;;;;;;8.33;6.70;;;11.00;99.90;;;;;;5010513;28;20238;-88
2022/10/09 08:24:59;;;;;;;6.80;6.20;;;11.10;99.90;;;;;;5017972;28;20227;-88
2022/10/09 08:27:25;;;;;;;7.03;6.23;;;11.20;99.90;;;;;;5016687;28;20199;-88
2022/10/09 08:29:51;;;;;;;8.57;6.07;;;11.30;99.90;;;;;;5020195;28;20301;-88
2022/10/09 08:32:16;;;;;;;6.37;5.77;;;11.50;99.90;;;;;;5020772;28;20227;-88
2022/10/09 08:34:43;;;;;;;8.67;5.70;;;11.60;99.90;;;;;;5020577;28;20259;-88
2022/10/09 08:37:09;;;;;;;6.47;5.67;;;11.80;99.90;;;;;;5016170;28;20194;-88
2022/10/09 08:39:34;;;;;;;6.17;5.40;;;11.90;99.90;;;;;;5003373;28;20211;-88
2022/10/09 08:42:02;;;;;;;6.73;5.90;;;12.00;99.80;;;;;;5017979;28;20648;-88
2022/10/09 08:44:37;;;;;;;6.57;5.57;;;12.10;98.60;;;;;;5003340;28;20208;-88
2022/10/09 08:47:24;;;;;;;6.93;5.43;;;12.20;98.70;;;;;;5017228;28;20176;-88
2022/10/09 08:50:04;;;;;;;10.10;5.93;;;12.30;98.30;;;;;;5005959;28;20198;-88
2022/10/09 08:53:08;;;;;;;5.70;4.83;;;12.40;98.40;;;;;;5016003;28;20282;-88
2022/10/09 08:55:53;;;;;;;6.43;5.10;;;12.60;97.80;;;;;;5010377;28;20196;-88
2022/10/09 08:58:29;;;;;;;6.63;4.90;;;12.60;96.70;;;;;;5016059;28;20201;-88
2022/10/09 09:01:19;;;;;;;6.20;4.93;;;12.80;95.80;;;;;;5015700;28;20207;-88
2022/10/09 09:04:13;;;;;;;5.50;5.00;;;12.90;96.10;;;;;;5003864;28;20248;-88
2022/10/09 09:06:51;;;;;;;5.50;4.90;;;13.10;95.90;;;;;;5017337;28;20173;-88
2022/10/09 09:09:27;;;;;;;6.13;5.00;;;13.10;94.80;;;;;;5026956;28;20648;-88
2022/10/09 09:12:02;;;;;;;7.77;5.00;;;13.20;94.60;;;;;;5015831;28;20197;-87
2022/10/09 09:14:46;;;;;;;6.30;5.00;;;13.40;93.30;;;;;;5012102;28;20252;-87
2022/10/09 09:17:33;;;;;;;5.00;4.40;;;13.60;90.10;;;;;;5015800;28;20182;-88
2022/10/09 09:19:59;;;;;;;6.47;4.90;;;13.90;90.00;;;;;;5016331;28;20243;-88
2022/10/09 09:22:26;;;;;;;5.80;4.33;;;14.10;88.20;;;;;;5018023;28;20226;-87
2022/10/09 09:24:56;;;;;;;4.70;4.30;;;14.30;86.30;;;;;;5018203;28;20591;-87
2022/10/09 09:27:33;;;;;;;6.57;4.77;;;14.40;85.70;;;;;;5012734;28;20188;-88
2022/10/09 09:30:11;;;;;;;5.40;4.33;;;14.60;85.00;;;;;;5014928;28;20177;-87
2022/10/09 09:32:41;;;;;;;7.87;4.40;;;14.90;83.60;;;;;;5018104;28;20215;-88
2022/10/09 09:35:27;;;;;;;6.03;4.60;;;15.00;82.50;;;;;;5012999;28;20236;-88
2022/10/09 09:37:53;;;;;;;6.30;4.40;;;15.20;80.90;;;;;;5016607;28;20211;-88
2022/10/09 09:40:19;;;;;;;5.27;4.00;;;15.40;78.70;;;;;;5018706;28;20561;-88
2022/10/09 09:42:45;;;;;;;4.27;3.87;;;15.60;78.00;;;;;;5007317;28;20238;-88
2022/10/09 09:45:20;;;;;;;4.80;4.20;;;15.80;75.20;;;;;;5011559;28;20211;-88
2022/10/09 09:48:14;;;;;;;4.47;4.07;;;16.10;73.00;;;;;;5035704;28;20182;-88
2022/10/09 09:50:42;;;;;;;5.80;3.87;;;16.20;70.00;;;;;;5030011;28;20200;-88
2022/10/09 09:53:32;;;;;;;4.00;3.70;;;16.30;70.00;;;;;;5013188;28;20216;-88
2022/10/09 09:55:58;;;;;;;3.80;3.50;;;16.40;67.00;;;;;;5013171;28;20194;-87
2022/10/09 09:58:33;;;;;;;3.90;3.43;;;16.50;67.40;;;;;;5012718;28;20196;-87
2022/10/09 10:01:02;;;;;;;4.00;3.60;;;16.50;67.70;;;;;;5015114;28;20200;-88
2022/10/09 10:03:28;;;;;;;4.00;3.60;;;16.50;66.70;;;;;;5013435;28;20301;-87
2022/10/09 10:05:54;;;;;;;7.50;3.67;;;16.60;66.30;;;;;;5014820;28;20269;-87
2022/10/09 10:08:29;;;;;;;5.57;3.93;;;16.70;66.30;;;;;;5014272;28;20197;-87
2022/10/09 10:10:58;;;;;;;7.23;4.20;;;16.90;65.50;;;;;;5013401;28;20257;-88
2022/10/09 10:13:48;;;;;;;4.40;3.67;;;17.10;65.20;;;;;;5015834;28;20215;-88
2022/10/09 10:16:28;;;;;;;6.93;4.03;;;17.20;62.80;;;;;;5012992;28;20249;-88
2022/10/09 10:18:56;;;;;;;4.53;3.70;;;17.20;62.50;;;;;;5006990;28;20202;-88
2022/10/09 10:21:22;;;;;;;3.57;3.27;;;17.20;62.20;;;;;;5014507;28;20201;-88
2022/10/09 10:23:53;;;;;;;3.97;3.53;;;17.50;63.50;;;;;;5014127;28;20590;-89
2022/10/09 10:26:37;;;;;;;4.00;3.70;;;17.50;62.40;;;;;;5012855;28;20182;-88
2022/10/09 10:29:34;;;;;;;4.32;3.40;;;17.90;61.10;;;;;;5007954;28;20191;-88
2022/10/09 10:32:37;;;;;;;6.22;3.97;;;18.10;60.60;;;;;;5009043;28;20212;-88
2022/10/09 10:35:13;;;;;;;4.75;4.00;;;18.00;58.10;;;;;;5012095;28;20201;-88
2022/10/09 10:37:45;;;;;;;3.90;3.60;;;17.90;58.30;;;;;;5011355;28;20175;-88
2022/10/09 10:40:26;;;;;;;4.22;3.50;;;18.10;58.50;;;;;;5023320;28;20195;-88
2022/10/09 10:43:00;;;;;;;5.40;3.50;;;18.30;58.10;;;;;;5012732;28;20212;-88
2022/10/09 10:45:32;;;;;;;5.47;3.88;;;18.60;57.60;;;;;;5012204;28;20209;-88
2022/10/09 10:48:00;;;;;;;5.00;4.00;;;18.80;56.00;;;;;;5012534;28;20204;-88
2022/10/09 10:50:35;;;;;;;4.72;3.60;;;18.80;55.00;;;;;;5012419;28;20193;-88
2022/10/09 10:53:22;;;;;;;4.47;3.80;;;18.90;54.40;;;;;;5001010;28;20239;-88
2022/10/09 10:55:56;;;;;;;4.25;3.65;;;19.00;54.60;;;;;;5010912;28;20684;-88
2022/10/09 10:58:22;;;;;;;4.05;3.75;;;18.90;55.30;;;;;;5009817;28;20189;-88
2022/10/09 11:01:08;;;;;;;5.47;3.95;;;19.10;54.80;;;;;;5012740;28;20464;-88
2022/10/09 11:04:02;;;;;;;3.95;3.40;;;19.20;52.80;;;;;;4990718;28;20225;-87
2022/10/09 11:06:36;;;;;;;5.55;3.63;;;19.20;53.70;;;;;;5016550;28;20196;-88
2022/10/09 11:09:14;;;;;;;6.75;3.90;;;19.40;52.70;;;;;;5012333;28;20263;-88
2022/10/09 11:11:53;;;;;;;3.95;3.53;;;19.40;52.10;;;;;;5011582;28;20189;-88
2022/10/09 11:14:28;;;;;;;4.78;3.75;;;19.50;51.70;;;;;;4999537;28;20754;-88
2022/10/09 11:17:15;;;;;;;5.15;3.85;;;19.60;51.50;;;;;;5012635;28;20189;-88
2022/10/09 11:19:47;;;;;;;4.18;3.47;;;19.80;51.90;;;;;;5011541;28;20195;-88
2022/10/09 11:23:00;;;;;;;4.93;3.72;;;19.80;51.20;;;;;;5012348;28;20268;-88
2022/10/09 11:25:26;;;;;;;4.68;3.70;;;19.80;50.00;;;;;;5011719;28;20212;-88
2022/10/09 11:28:01;;;;;;;3.78;3.38;;;20.20;49.70;;;;;;5012237;28;20181;-88
2022/10/09 11:30:33;;;;;;;3.95;3.53;;;20.30;48.80;;;;;;5014845;28;20711;-88
2022/10/09 11:33:27;;;;;;;5.00;3.90;;;20.50;48.40;;;;;;5015794;28;20217;-88
2022/10/09 11:36:11;;;;;;;4.85;3.80;;;20.60;48.60;;;;;;5028642;28;20264;-88
2022/10/09 11:38:58;;;;;;;3.53;3.20;;;20.70;47.80;;;;;;5012284;28;20192;-88
2022/10/09 11:41:25;;;;;;;6.75;3.72;;;20.50;46.70;;;;;;5014165;28;20193;-88
2022/10/09 11:44:09;;;;;;;4.35;3.90;;;20.60;47.20;;;;;;5014399;28;20213;-88
2022/10/09 11:53:23;;;;;;;4.57;3.75;;;21.50;44.70;;;;;;5040154;23;20232;-86
2022/10/09 11:56:04;;;;;;;4.03;3.58;;;21.80;43.70;;;;;;5050550;28;20575;-87
2022/10/09 11:58:31;;;;;;;4.00;3.55;;;21.70;44.00;;;;;;5037009;28;20185;-85
2022/10/09 12:01:18;;;;;;;4.00;3.60;;;21.80;44.00;;;;;;5051182;28;20203;-86
2022/10/09 12:03:43;;;;;;;4.43;3.42;;;21.90;42.40;;;;;;5047705;28;20208;-86
2022/10/09 12:06:15;;;;;;;4.15;3.53;;;21.90;42.50;;;;;;5051454;28;20581;-88
2022/10/09 12:08:51;;;;;;;3.85;3.55;;;21.80;41.80;;;;;;5051666;28;20676;-88
2022/10/09 12:11:18;;;;;;;3.67;3.38;;;21.80;41.80;;;;;;5052334;28;20674;-87
2022/10/09 12:13:58;;;;;;;3.80;3.45;;;22.20;41.80;;;;;;5052061;28;20238;-88
2022/10/09 12:16:35;;;;;;;3.97;3.58;;;22.50;40.70;;;;;;5045444;28;20181;-88
2022/10/09 12:19:17;;;;;;;3.58;3.28;;;22.80;40.00;;;;;;5049606;28;20603;-87
2022/10/09 12:21:51;;;;;;;4.40;4.00;;;22.70;39.10;;;;;;5055452;28;20754;-85
2022/10/09 12:24:24;;;;;;;4.20;3.80;;;22.60;39.90;;;;;;5056205;28;20208;-87
2022/10/09 12:26:53;;;;;;;4.18;3.78;;;22.60;40.40;;;;;;5049770;28;20181;-88
2022/10/09 12:29:42;;;;;;;4.10;3.35;;;22.80;39.30;;;;;;5047745;28;20189;-87
2022/10/09 12:32:16;;;;;;;3.92;3.08;;;22.60;39.70;;;;;;5073327;28;20208;-85
2022/10/09 12:34:46;;;;;;;3.85;3.55;;;22.20;39.80;;;;;;5066522;28;20172;-85
2022/10/09 12:37:20;;;;;;;3.65;3.30;;;22.30;40.00;;;;;;5062406;28;20183;-85
2022/10/09 12:39:48;;;;;;;3.95;3.53;;;22.60;39.80;;;;;;5063060;28;20248;-88
2022/10/09 12:42:22;;;;;;;3.53;3.22;;;23.20;38.60;;;;;;5058919;28;20206;-87
2022/10/09 12:44:51;;;;;;;4.40;3.53;;;23.10;37.70;;;;;;5047859;28;20216;-88
2022/10/09 12:47:28;;;;;;;3.90;3.30;;;22.80;38.60;;;;;;5052995;28;20239;-87
2022/10/09 12:50:11;;;;;;;3.67;3.25;;;22.60;38.60;;;;;;5050982;28;20289;-88
2022/10/09 12:53:00;;;;;;;4.13;3.25;;;22.80;38.90;;;;;;5050342;28;20365;-87
2022/10/09 12:55:29;;;;;;;4.53;3.10;;;23.30;38.30;;;;;;5049547;28;20286;-87
2022/10/09 12:58:18;;;;;;;3.53;3.22;;;23.80;37.40;;;;;;5050059;28;20184;-88
2022/10/09 13:00:47;;;;;;;3.63;3.33;;;23.90;36.20;;;;;;5051676;28;20198;-88
2022/10/09 13:03:38;;;;;;;3.45;2.90;;;24.00;35.70;;;;;;5052087;28;20207;-88
2022/10/09 13:06:16;;;;;;;3.70;3.15;;;23.50;37.10;;;;;;5046178;28;20295;-87
2022/10/09 13:08:43;;;;;;;3.40;3.10;;;23.10;37.90;;;;;;5052043;28;20203;-88
2022/10/09 13:11:19;;;;;;;3.75;3.35;;;23.10;38.00;;;;;;5050319;28;20722;-88
2022/10/09 13:13:50;;;;;;;3.60;3.30;;;23.20;38.00;;;;;;5051447;28;20180;-89